NCAR-RAP Real-Time Weather Data

Output produced by METARs form (21 April 2018  13:14 UTC)
found at http://weather.rap.ucar.edu/surface/
 
Conditions at: KSDF observed 21 April 2018  12:56 UTC
Temperature: 10.0°C (50°F)
Dewpoint: -2.8°C (27°F) [RH = 40%]
Pressure (altimeter): 30.40 inches Hg (1029.5 mb)
[Sea-level pressure: 1029.5 mb]
Winds: from the E (80 degrees) at 9 MPH (8 knots; 4.2 m/s)
Visibility: 10 or more miles (16+ km)
Ceiling: at least 12,000 feet AGL
Clouds: few clouds at 25000 feet AGL
few clouds at 30000 feet AGL
Present Weather: no significant weather observed at this time
KSDF 211256Z 08008KT 10SM FEW250 FEW300 10/M03 A3040 RMK AO2 SLP295 T01001028